サプライズ過ぎて…

LUXURY FLIGHT

03-6423-7371

羽田本店:東京都大田区羽田5-11-1
営業時間:10:00~20:00
定休日:毎週 月曜日
セントレア店:愛知県常滑市セントレア1-1
営業時間:10:00~20:00 年中無休

lv

サプライズ過ぎて…

STAFF BLOG

2019/07/05 サプライズ過ぎて…

こんちわっすーーーー

 

本日の羽田METARでございまするが…

 

RJTT 050530Z 09008KT 9999 FEW025 BKN/// 24/20 Q1006 NOSIG

RMK 1CU025 A2972 MOD TURB OBS AT 0500Z 20NM W ADDUM BTN FL170 AND FL150 BY B738

AND OBS AT 0509Z 10NM SW UTIBO BTN FL150 AND 10000FT IN DES BY B738

 

ちょっとレアなMETARですね

B738のパイロットレポートとして、2件の揺れの情報が追記されています。

ぜひ解読にチャレンジしてみてくださーーーい!!

 

さてさてさて、

先日のこちらのお客様、彼女のサプライズでご来店していただきましたが、

あまりにサプライズ過ぎたのか、彼氏さんが状況を把握しきれずに

もはや戸惑いを通り越して、店の隅で怯えておりました。(笑)

 

そんな彼氏さんに弊社のスタイルを丁寧に説明し、理解していただいたあとの切り替えは早かったですねーーーー

 

 

もう、完全に子供。(笑)

 

 

コックピットのドアを開けた瞬間から、

 

「   うぉぉぉぉぉぉぉーーーー!!!   やべぇぇぇぇぇぇぇぇーーーーーーーー!!!!」

 

雄叫びが聞こえます。(笑)

 

 

 

ボタン一個一個、スイッチ一つ一つに感動してもらえたので、

我々スタッフも一緒に飛んでいて本当に楽しかったです。

 

ただ、彼女さんの方が飛行機はもちろん、乗り物全般(特に電車)に詳しいというね…

可愛らしい外見とのギャップにスタッフ一同、「絶対モテるんだろうなぁ」と思ってます。(笑)

 

 

 

もう、彼氏の幸せ者!!!!!!!!

 

 

 

img_1980

記念撮影は、我々スタッフでも真似できないような最高のドヤ顔をしてくださいました。(笑)

お見せできないのが悔しいですが…

 

ベストカップルなお二人にまたお会いできますことを心より楽しみに致しておりまーーーす!!!!

 

この度はご来店誠にありがとうございました。

 

「感謝」

TOP